createdAt,value
2018-09-12T00:01:01.153Z,98716.04
2018-09-12T00:03:29.816Z,98715.77
2018-09-12T00:05:57.977Z,98718.96
2018-09-12T00:08:26.149Z,98716.70
2018-09-12T00:10:54.347Z,98710.06
2018-09-12T00:13:22.537Z,98712.09
2018-09-12T00:15:50.716Z,98710.73
2018-09-12T00:18:19.217Z,98718.11
2018-09-12T00:20:47.447Z,98711.56
2018-09-12T00:23:16.261Z,98714.66
2018-09-12T00:25:44.459Z,98714.91
2018-09-12T00:28:12.709Z,98717.59
2018-09-12T00:30:40.977Z,98724.26
2018-09-12T00:33:09.330Z,98719.13
2018-09-12T00:35:37.699Z,98715.59
2018-09-12T00:38:05.915Z,98718.90
2018-09-12T00:40:34.121Z,98719.13
2018-09-12T00:43:02.572Z,98716.63
2018-09-12T00:45:30.809Z,98710.28
2018-09-12T00:47:59.290Z,98713.03
2018-09-12T00:50:27.455Z,98706.63
2018-09-12T00:52:55.885Z,98708.02
2018-09-12T00:55:24.176Z,98711.69
2018-09-12T00:57:52.358Z,98711.94
2018-09-12T01:00:20.516Z,98698.14
2018-09-12T01:02:48.710Z,98704.66
2018-09-12T01:05:16.954Z,98704.08
2018-09-12T01:07:45.255Z,98699.95
2018-09-12T01:10:13.422Z,98697.56
2018-09-12T01:12:41.589Z,98700.77
2018-09-12T01:15:09.937Z,98698.25
2018-09-12T01:17:38.279Z,98695.19
2018-09-12T01:20:06.471Z,98698.61
2018-09-12T01:22:34.713Z,98695.20
2018-09-12T01:25:02.992Z,98694.08
2018-09-12T01:27:31.161Z,98696.58
2018-09-12T01:29:59.412Z,98696.91
2018-09-12T01:32:27.601Z,98698.63
2018-09-12T01:34:56.047Z,98696.55
2018-09-12T01:37:24.585Z,98693.94
2018-09-12T01:39:52.838Z,98688.92
2018-09-12T01:42:21.014Z,98682.43
2018-09-12T01:44:49.344Z,98685.62
2018-09-12T01:47:17.521Z,98679.02
2018-09-12T01:49:46.027Z,98674.23
2018-09-12T01:52:14.201Z,98674.46
2018-09-12T01:54:42.620Z,98680.16
2018-09-12T01:57:10.836Z,98686.08
2018-09-12T01:59:38.990Z,98681.64
2018-09-12T02:02:07.233Z,98674.91
2018-09-12T02:04:35.800Z,98674.66
2018-09-12T02:07:03.984Z,98672.38
2018-09-12T02:09:32.262Z,98669.64
2018-09-12T02:12:00.514Z,98673.86
2018-09-12T02:14:28.695Z,98674.31
2018-09-12T02:16:56.882Z,98680.70
2018-09-12T02:19:25.050Z,98674.97
2018-09-12T02:21:53.317Z,98681.12
2018-09-12T02:24:21.554Z,98681.80
2018-09-12T02:26:49.769Z,98683.09
2018-09-12T02:29:17.937Z,98680.58
2018-09-12T02:31:46.152Z,98677.05
2018-09-12T02:34:14.709Z,98673.52
2018-09-12T02:36:42.873Z,98674.09
2018-09-12T02:39:11.169Z,98673.52
2018-09-12T02:41:39.430Z,98667.82
2018-09-12T02:44:07.595Z,98668.84
2018-09-12T02:46:35.801Z,98665.54
2018-09-12T02:49:04.053Z,98664.29
2018-09-12T02:51:32.325Z,98652.21
2018-09-12T02:54:00.852Z,98651.98
2018-09-12T02:56:29.094Z,98651.41
2018-09-12T02:58:57.687Z,98652.89
2018-09-12T03:01:25.884Z,98656.42
2018-09-12T03:04:10.852Z,98652.66
2018-09-12T03:06:39.150Z,98643.89
2018-09-12T03:09:08.341Z,98643.64
2018-09-12T03:11:36.552Z,98639.30
2018-09-12T03:14:04.773Z,98635.89
2018-09-12T03:16:32.963Z,98640.44
2018-09-12T03:19:01.257Z,98635.43
2018-09-12T03:21:29.680Z,98636.45
2018-09-12T03:23:57.902Z,98635.55
2018-09-12T03:26:26.140Z,98632.58
2018-09-12T03:28:54.471Z,98632.13
2018-09-12T03:31:22.648Z,98634.75
2018-09-12T03:33:50.880Z,98627.80
2018-09-12T03:36:19.172Z,98621.53
2018-09-12T03:38:47.384Z,98622.45
2018-09-12T03:41:15.892Z,98622.10
2018-09-12T03:43:44.076Z,98617.45
2018-09-12T03:46:12.336Z,98615.52
2018-09-12T03:48:40.602Z,98607.97
2018-09-12T03:51:08.789Z,98610.62
2018-09-12T03:53:37.188Z,98606.72
2018-09-12T03:56:05.446Z,98615.06
2018-09-12T03:58:34.774Z,98612.42
2018-09-12T04:01:02.961Z,98606.27
2018-09-12T04:03:31.129Z,98601.40
2018-09-12T04:05:59.795Z,98603.08
2018-09-12T04:08:28.046Z,98608.46
2018-09-12T04:10:56.537Z,98604.36
2018-09-12T04:13:24.817Z,98602.31
2018-09-12T04:15:53.081Z,98607.20
2018-09-12T04:18:21.345Z,98607.07
2018-09-12T04:20:49.627Z,98605.34
2018-09-12T04:23:17.799Z,98592.59
2018-09-12T04:25:45.975Z,98593.63
2018-09-12T04:28:14.157Z,98592.73
2018-09-12T04:30:42.337Z,98597.08
2018-09-12T04:33:10.512Z,98597.16
2018-09-12T04:35:38.888Z,98588.85
2018-09-12T04:38:07.061Z,98598.88
2018-09-12T04:40:35.233Z,98594.67
2018-09-12T04:43:03.538Z,98591.36
2018-09-12T04:45:31.777Z,98588.85
2018-09-12T04:47:59.962Z,98595.69
2018-09-12T04:50:28.145Z,98590.67
2018-09-12T04:52:56.410Z,98596.60
2018-09-12T04:55:24.620Z,98594.66
2018-09-12T04:57:52.792Z,98597.51
2018-09-12T05:00:20.985Z,98595.70
2018-09-12T05:02:49.198Z,98596.37
2018-09-12T05:05:17.414Z,98604.48
2018-09-12T05:07:45.585Z,98610.05
2018-09-12T05:10:13.822Z,98611.88
2018-09-12T05:12:42.009Z,98611.98
2018-09-12T05:15:10.179Z,98617.22
2018-09-12T05:17:38.493Z,98613.67
2018-09-12T05:20:06.686Z,98612.42
2018-09-12T05:22:34.895Z,98604.55
2018-09-12T05:25:03.153Z,98602.25
2018-09-12T05:27:31.468Z,98608.86
2018-09-12T05:29:59.728Z,98604.85
2018-09-12T05:32:27.901Z,98608.91
2018-09-12T05:34:56.094Z,98603.22
2018-09-12T05:37:24.356Z,98602.72
2018-09-12T05:39:52.533Z,98608.84
2018-09-12T05:42:20.817Z,98604.83
2018-09-12T05:44:49.087Z,98607.76
2018-09-12T05:47:17.395Z,98606.73
2018-09-12T05:49:45.651Z,98606.41
2018-09-12T05:52:13.819Z,98600.34
2018-09-12T05:54:42.493Z,98594.69
2018-09-12T05:57:10.690Z,98598.70
2018-09-12T05:59:38.868Z,98600.72
2018-09-12T06:02:07.338Z,98596.91
2018-09-12T06:04:35.526Z,98585.98
2018-09-12T06:07:03.799Z,98590.84
2018-09-12T06:09:31.882Z,98586.36
2018-09-12T06:12:00.074Z,98583.34
2018-09-12T06:14:28.244Z,98586.83
2018-09-12T06:16:56.464Z,98579.16
2018-09-12T06:19:24.658Z,98579.81
2018-09-12T06:21:52.883Z,98583.00
2018-09-12T06:24:21.453Z,98584.88
2018-09-12T06:26:49.847Z,98597.61
2018-09-12T06:29:18.038Z,98591.64
2018-09-12T06:31:46.211Z,98593.30
2018-09-12T06:34:14.698Z,98595.24
2018-09-12T06:36:42.901Z,98591.85
2018-09-12T06:39:12.690Z,98595.11
2018-09-12T06:41:40.886Z,98595.94
2018-09-12T06:44:09.259Z,98593.06
2018-09-12T06:46:37.628Z,98587.84
2018-09-12T06:49:06.184Z,98596.55
2018-09-12T06:51:34.440Z,98601.56
2018-09-12T06:54:02.818Z,98603.06
2018-09-12T06:56:31.071Z,98604.91
2018-09-12T06:58:59.270Z,98598.45
2018-09-12T07:01:27.447Z,98590.50
2018-09-12T07:03:55.686Z,98590.94
2018-09-12T07:06:24.046Z,98591.91
2018-09-12T07:08:52.529Z,98587.44
2018-09-12T07:11:20.817Z,98596.70
2018-09-12T07:13:49.077Z,98591.28
2018-09-12T07:16:17.361Z,98586.95
2018-09-12T07:18:45.646Z,98593.51
2018-09-12T07:21:13.817Z,98585.20
2018-09-12T07:23:42.141Z,98582.98
2018-09-12T07:26:10.641Z,98584.81
2018-09-12T07:28:38.820Z,98591.13
2018-09-12T07:31:07.189Z,98591.39
2018-09-12T07:33:35.377Z,98588.48
2018-09-12T07:36:03.593Z,98590.33
2018-09-12T07:38:31.844Z,98585.96
2018-09-12T07:41:00.133Z,98586.44
2018-09-12T07:43:29.143Z,98586.94
2018-09-12T07:45:57.390Z,98585.59
2018-09-12T07:48:25.590Z,98592.28
2018-09-12T07:50:53.776Z,98587.70
2018-09-12T07:53:22.045Z,98589.35
2018-09-12T07:55:50.280Z,98586.03
2018-09-12T07:58:18.465Z,98590.08
2018-09-12T08:00:46.673Z,98595.66
2018-09-12T08:03:14.933Z,98596.87
2018-09-12T08:05:43.102Z,98588.23
2018-09-12T08:08:11.314Z,98585.27
2018-09-12T08:10:40.089Z,98578.16
2018-09-12T08:13:08.654Z,98584.52
2018-09-12T08:15:36.846Z,98580.37
2018-09-12T08:18:05.646Z,98586.89
2018-09-12T08:20:34.056Z,98581.77
2018-09-12T08:23:02.362Z,98584.52
2018-09-12T08:25:30.569Z,98584.55
2018-09-12T08:27:58.797Z,98587.52
2018-09-12T08:30:27.332Z,98586.71
2018-09-12T08:32:55.509Z,98587.10
2018-09-12T08:35:24.835Z,98586.86
2018-09-12T08:37:52.996Z,98587.05
2018-09-12T08:40:21.225Z,98594.12
2018-09-12T08:42:49.600Z,98588.38
2018-09-12T08:45:17.872Z,98588.89
2018-09-12T08:47:46.119Z,98584.73
2018-09-12T08:50:14.257Z,98589.06
2018-09-12T08:52:42.513Z,98587.25
2018-09-12T08:55:10.833Z,98586.93
2018-09-12T08:57:38.996Z,98591.61
2018-09-12T09:00:07.418Z,98590.21
2018-09-12T09:02:35.610Z,98594.59
2018-09-12T09:05:03.804Z,98592.17
2018-09-12T09:07:32.072Z,98600.05
2018-09-12T09:10:00.400Z,98599.70
2018-09-12T09:12:28.595Z,98602.79
2018-09-12T09:14:56.872Z,98606.70
2018-09-12T09:17:25.125Z,98605.92
2018-09-12T09:19:53.314Z,98602.36
2018-09-12T09:22:21.810Z,98599.86
2018-09-12T09:24:50.346Z,98606.30
2018-09-12T09:27:18.549Z,98607.47
2018-09-12T09:29:46.735Z,98609.89
2018-09-12T09:32:15.146Z,98607.44
2018-09-12T09:34:43.398Z,98608.03
2018-09-12T09:37:11.682Z,98603.41
2018-09-12T09:39:39.866Z,98597.73
2018-09-12T09:42:08.054Z,98597.20
2018-09-12T09:44:36.287Z,98587.36
2018-09-12T09:47:04.481Z,98590.30
2018-09-12T09:49:32.667Z,98588.47
2018-09-12T09:52:01.102Z,98580.43
2018-09-12T09:54:29.603Z,98583.82
2018-09-12T09:56:57.863Z,98581.14
2018-09-12T09:59:26.126Z,98589.05
2018-09-12T10:01:59.533Z,98586.87
2018-09-12T10:04:33.361Z,98589.37
2018-09-12T10:07:06.860Z,98579.59
2018-09-12T10:09:35.037Z,98574.08
2018-09-12T10:12:04.074Z,98576.27
2018-09-12T10:14:32.298Z,98577.52
2018-09-12T10:17:00.479Z,98571.12
2018-09-12T10:19:28.749Z,98567.25
2018-09-12T10:21:57.287Z,98560.77
2018-09-12T10:24:25.706Z,98552.68
2018-09-12T10:26:53.705Z,98548.23
2018-09-12T10:29:21.945Z,98549.15
2018-09-12T10:31:50.215Z,98547.23
2018-09-12T10:34:18.397Z,98551.86
2018-09-12T10:36:46.626Z,98552.91
2018-09-12T10:39:14.841Z,98550.59
2018-09-12T10:41:43.829Z,98550.07
2018-09-12T10:44:12.143Z,98546.75
2018-09-12T10:46:40.379Z,98542.83
2018-09-12T10:49:08.711Z,98530.28
2018-09-12T10:51:36.935Z,98519.91
2018-09-12T10:54:05.219Z,98522.37
2018-09-12T10:56:33.484Z,98515.59
2018-09-12T10:59:01.753Z,98522.78
2018-09-12T11:01:29.888Z,98521.38
2018-09-12T11:03:58.104Z,98515.66
2018-09-12T11:06:26.299Z,98513.47
2018-09-12T11:08:54.566Z,98504.73
2018-09-12T11:11:22.796Z,98510.63
2018-09-12T11:13:50.994Z,98510.04
2018-09-12T11:16:19.184Z,98509.02
2018-09-12T11:18:47.466Z,98504.02
2018-09-12T11:21:15.742Z,98496.53
2018-09-12T11:23:43.933Z,98495.38
2018-09-12T11:26:12.235Z,98491.14
2018-09-12T11:28:40.738Z,98486.89
2018-09-12T11:31:08.920Z,98484.08
2018-09-12T11:33:37.214Z,98473.48
2018-09-12T11:36:05.393Z,98479.20
2018-09-12T11:38:33.582Z,98461.62
2018-09-12T11:41:02.030Z,98459.14
2018-09-12T11:43:30.225Z,98454.14
2018-09-12T11:45:58.419Z,98451.39
2018-09-12T11:48:26.828Z,98440.92
2018-09-12T11:50:55.089Z,98449.03
2018-09-12T11:53:23.325Z,98442.70
2018-09-12T11:55:51.529Z,98442.74
2018-09-12T11:58:19.719Z,98444.28
2018-09-12T12:00:47.895Z,98435.58
2018-09-12T12:03:16.537Z,98428.05
2018-09-12T12:05:45.059Z,98418.55
2018-09-12T12:08:13.280Z,98419.23
2018-09-12T12:10:41.464Z,98411.11
2018-09-12T12:13:09.652Z,98412.90
2018-09-12T12:15:37.826Z,98406.73
2018-09-12T12:18:06.102Z,98411.42
2018-09-12T12:20:34.846Z,98388.88
2018-09-12T12:23:03.100Z,98388.22
2018-09-12T12:25:31.211Z,98386.02
2018-09-12T12:27:59.396Z,98375.57
2018-09-12T12:30:27.572Z,98373.55
2018-09-12T12:32:55.776Z,98374.66
2018-09-12T12:35:24.995Z,98367.84
2018-09-12T12:37:53.636Z,98369.66
2018-09-12T12:40:22.059Z,98364.27
2018-09-12T12:42:50.240Z,98368.63
2018-09-12T12:45:18.794Z,98356.39
2018-09-12T12:47:47.049Z,98352.82
2018-09-12T12:50:15.438Z,98348.15
2018-09-12T12:52:43.698Z,98342.02
2018-09-12T12:55:11.861Z,98337.78
2018-09-12T12:57:40.317Z,98332.37
2018-09-12T13:00:08.493Z,98335.71
2018-09-12T13:02:36.694Z,98326.40
2018-09-12T13:05:05.430Z,98326.88
2018-09-12T13:07:33.661Z,98319.63
2018-09-12T13:10:01.937Z,98307.02
2018-09-12T13:12:30.163Z,98311.71
2018-09-12T13:14:58.387Z,98307.15
2018-09-12T13:17:26.657Z,98299.64
2018-09-12T13:19:54.833Z,98302.74
2018-09-12T13:22:23.008Z,98294.71
2018-09-12T13:24:51.161Z,98297.71
2018-09-12T13:27:19.494Z,98287.42
2018-09-12T13:29:47.666Z,98286.66
2018-09-12T13:32:15.917Z,98280.59
2018-09-12T13:34:44.240Z,98273.89
2018-09-12T13:37:12.460Z,98279.84
2018-09-12T13:39:40.734Z,98269.44
2018-09-12T13:42:09.476Z,98267.03
2018-09-12T13:44:37.674Z,98258.89
2018-09-12T13:47:05.878Z,98259.25
2018-09-12T13:49:34.292Z,98255.27
2018-09-12T13:52:02.517Z,98248.78
2018-09-12T13:54:30.718Z,98241.89
2018-09-12T13:56:59.015Z,98247.96
2018-09-12T13:59:27.479Z,98243.77
2018-09-12T14:01:55.641Z,98233.71
2018-09-12T14:04:24.133Z,98229.28
2018-09-12T14:06:52.378Z,98222.03
2018-09-12T14:09:20.572Z,98222.53
2018-09-12T14:11:48.769Z,98222.88
2018-09-12T14:14:17.006Z,98214.89
2018-09-12T14:16:45.182Z,98213.45
2018-09-12T14:19:13.691Z,98209.16
2018-09-12T14:21:41.947Z,98211.48
2018-09-12T14:24:10.151Z,98209.08
2018-09-12T14:26:38.338Z,98196.94
2018-09-12T14:29:06.504Z,98202.86
2018-09-12T14:31:34.742Z,98201.23
2018-09-12T14:34:03.040Z,98200.58
2018-09-12T14:36:31.296Z,98200.48
2018-09-12T14:38:59.594Z,98193.84
2018-09-12T14:41:27.768Z,98192.14
2018-09-12T14:43:55.938Z,98188.19
2018-09-12T14:46:24.202Z,98189.25
2018-09-12T14:48:52.380Z,98190.28
2018-09-12T14:51:20.874Z,98181.40
2018-09-12T14:53:49.130Z,98177.16
2018-09-12T14:56:17.329Z,98184.53
2018-09-12T14:58:45.520Z,98187.63
2018-09-12T15:01:13.693Z,98182.81
2018-09-12T15:03:41.893Z,98183.12
2018-09-12T15:06:10.054Z,98180.70
2018-09-12T15:08:38.225Z,98187.42
2018-09-12T15:11:06.741Z,98181.63
2018-09-12T15:13:34.970Z,98185.53
2018-09-12T15:16:03.207Z,98183.93
2018-09-12T15:18:31.424Z,98182.96
2018-09-12T15:20:59.623Z,98176.19
2018-09-12T15:23:27.808Z,98175.25
2018-09-12T15:25:56.006Z,98176.51
2018-09-12T15:28:24.190Z,98178.39
2018-09-12T15:30:52.454Z,98176.30
2018-09-12T15:33:20.738Z,98177.22
2018-09-12T15:35:48.922Z,98174.54
2018-09-12T15:38:17.110Z,98163.12
2018-09-12T15:40:47.276Z,98161.34
2018-09-12T15:43:15.547Z,98153.33
2018-09-12T15:45:43.861Z,98149.59
2018-09-12T15:48:12.057Z,98149.91
2018-09-12T15:50:40.253Z,98149.91
2018-09-12T15:53:08.773Z,98148.94
2018-09-12T15:55:37.073Z,98145.64
2018-09-12T15:58:05.700Z,98145.03
2018-09-12T16:00:33.845Z,98144.41
2018-09-12T16:03:02.383Z,98144.60
2018-09-12T16:05:30.567Z,98143.70
2018-09-12T16:07:58.944Z,98138.83
2018-09-12T16:10:27.205Z,98140.22
2018-09-12T16:12:55.384Z,98135.98
2018-09-12T16:15:23.679Z,98132.64
2018-09-12T16:17:51.794Z,98134.51
2018-09-12T16:20:20.019Z,98129.55
2018-09-12T16:22:48.523Z,98128.24
2018-09-12T16:25:16.723Z,98127.48
2018-09-12T16:27:44.907Z,98129.00
2018-09-12T16:30:13.230Z,98127.70
2018-09-12T16:32:41.540Z,98123.30
2018-09-12T16:35:10.575Z,98118.38
2018-09-12T16:37:38.822Z,98122.05
2018-09-12T16:40:07.096Z,98118.59
2018-09-12T16:42:35.329Z,98124.95
2018-09-12T16:45:03.739Z,98122.44
2018-09-12T16:47:31.932Z,98121.64
2018-09-12T16:50:00.142Z,98119.52
2018-09-12T16:52:28.648Z,98117.00
2018-09-12T16:54:56.918Z,98116.84
2018-09-12T16:57:25.174Z,98120.59
2018-09-12T16:59:53.678Z,98118.69
2018-09-12T17:02:21.915Z,98117.40
2018-09-12T17:04:50.078Z,98115.78
2018-09-12T17:07:18.277Z,98113.67
2018-09-12T17:09:46.578Z,98114.59
2018-09-12T17:12:14.853Z,98115.88
2018-09-12T17:14:43.117Z,98116.16
2018-09-12T17:17:11.434Z,98118.35
2018-09-12T17:19:39.615Z,98113.28
2018-09-12T17:22:07.874Z,98118.94
2018-09-12T17:24:36.097Z,98116.33
2018-09-12T17:27:04.308Z,98112.67
2018-09-12T17:29:32.749Z,98115.81
2018-09-12T17:32:00.961Z,98111.76
2018-09-12T17:34:29.135Z,98111.92
2018-09-12T17:36:57.397Z,98108.31
2018-09-12T17:39:26.357Z,98108.33
2018-09-12T17:41:54.536Z,98107.23
2018-09-12T17:44:22.781Z,98121.88
2018-09-12T17:46:51.049Z,98111.42
2018-09-12T17:49:19.213Z,98119.98
2018-09-12T17:51:47.480Z,98119.23
2018-09-12T17:54:15.872Z,98116.89
2018-09-12T17:56:44.074Z,98110.42
2018-09-12T17:59:12.259Z,98115.41
2018-09-12T18:01:40.460Z,98118.63
2018-09-12T18:04:08.959Z,98116.92
2018-09-12T18:06:37.395Z,98120.11
2018-09-12T18:09:07.864Z,98124.52
2018-09-12T18:11:36.135Z,98128.64
2018-09-12T18:14:04.286Z,98126.00
2018-09-12T18:16:32.598Z,98127.11
2018-09-12T18:19:00.772Z,98125.77
2018-09-12T18:21:29.080Z,98131.80
2018-09-12T18:23:57.320Z,98135.34
2018-09-12T18:26:25.526Z,98138.05
2018-09-12T18:28:54.176Z,98138.09
2018-09-12T18:31:22.464Z,98139.75
2018-09-12T18:33:51.092Z,98142.55
2018-09-12T18:36:19.258Z,98135.67
2018-09-12T18:38:47.445Z,98144.84
2018-09-12T18:41:15.653Z,98146.86
2018-09-12T18:43:43.869Z,98145.98
2018-09-12T18:46:13.517Z,98155.75
2018-09-12T18:48:42.893Z,98161.38
2018-09-12T18:51:12.089Z,98164.01
2018-09-12T18:53:41.915Z,98162.05
2018-09-12T18:56:17.524Z,98166.44
2018-09-12T18:58:47.325Z,98162.94
2018-09-12T19:01:16.440Z,98156.87
2018-09-12T19:03:45.977Z,98165.21
2018-09-12T19:06:15.168Z,98163.87
2018-09-12T19:08:44.898Z,98164.89
2018-09-12T19:11:14.076Z,98169.27
2018-09-12T19:13:44.068Z,98178.56
2018-09-12T19:16:13.162Z,98185.32
2018-09-12T19:18:42.037Z,98186.09
2018-09-12T19:21:11.107Z,98183.55
2018-09-12T19:23:40.393Z,98186.72
2018-09-12T19:26:09.406Z,98190.09
2018-09-12T19:28:38.568Z,98188.34
2018-09-12T19:31:07.693Z,98190.90
2018-09-12T19:33:37.268Z,98181.83
2018-09-12T19:36:06.372Z,98185.97
2018-09-12T19:38:35.503Z,98182.02
2018-09-12T19:41:04.287Z,98191.69
2018-09-12T19:43:33.159Z,98190.05
2018-09-12T19:46:01.403Z,98193.00
2018-09-12T19:48:30.541Z,98195.45
2018-09-12T19:50:59.622Z,98201.58
2018-09-12T19:53:28.694Z,98200.81
2018-09-12T19:55:57.455Z,98199.63
2018-09-12T19:58:26.343Z,98196.66
2018-09-12T20:00:55.432Z,98191.72
2018-09-12T20:03:24.560Z,98189.95
2018-09-12T20:05:53.624Z,98184.63
2018-09-12T20:08:23.648Z,98178.52
2018-09-12T20:10:52.480Z,98184.64
2018-09-12T20:13:20.804Z,98184.59
2018-09-12T20:15:49.322Z,98185.38
2018-09-12T20:18:17.555Z,98189.92
2018-09-12T20:20:46.342Z,98192.48
2018-09-12T20:23:14.614Z,98186.16
2018-09-12T20:25:43.214Z,98192.05
2018-09-12T20:28:11.426Z,98198.16
2018-09-12T20:30:39.646Z,98201.30
2018-09-12T20:33:07.990Z,98200.91
2018-09-12T20:35:36.215Z,98204.05
2018-09-12T20:38:05.343Z,98201.86
2018-09-12T20:40:33.581Z,98197.86
2018-09-12T20:43:01.805Z,98196.87
2018-09-12T20:45:30.074Z,98200.20
2018-09-12T20:47:58.289Z,98194.07
2018-09-12T20:50:26.541Z,98192.30
2018-09-12T20:52:54.993Z,98186.58
2018-09-12T20:55:23.536Z,98184.36
2018-09-12T20:57:51.839Z,98181.16
2018-09-12T21:00:20.174Z,98181.73
2018-09-12T21:02:48.529Z,98187.42
2018-09-12T21:05:16.621Z,98174.79
2018-09-12T21:07:44.847Z,98181.61
2018-09-12T21:10:13.064Z,98181.77
2018-09-12T21:12:41.650Z,98176.83
2018-09-12T21:15:09.842Z,98185.27
2018-09-12T21:17:38.032Z,98175.58
2018-09-12T21:20:06.266Z,98182.66
2018-09-12T21:22:34.542Z,98184.16
2018-09-12T21:25:02.862Z,98184.72
2018-09-12T21:27:31.616Z,98182.52
2018-09-12T21:29:59.859Z,98186.42
2018-09-12T21:32:28.200Z,98181.36
2018-09-12T21:34:56.407Z,98181.31
2018-09-12T21:37:24.922Z,98175.58
2018-09-12T21:39:53.093Z,98181.42
2018-09-12T21:42:21.357Z,98176.01
2018-09-12T21:44:49.539Z,98176.37
2018-09-12T21:47:17.777Z,98171.39
2018-09-12T21:49:47.049Z,98169.98
2018-09-12T21:52:15.254Z,98171.72
2018-09-12T21:54:43.417Z,98167.23
2018-09-12T21:57:11.874Z,98165.89
2018-09-12T21:59:40.137Z,98165.45
2018-09-12T22:02:08.316Z,98166.16
2018-09-12T22:04:36.493Z,98162.77
2018-09-12T22:07:05.261Z,98153.30
2018-09-12T22:09:33.517Z,98152.87
2018-09-12T22:12:01.778Z,98150.05
2018-09-12T22:14:30.272Z,98156.52
2018-09-12T22:16:58.822Z,98149.09
2018-09-12T22:19:27.028Z,98142.83
2018-09-12T22:21:55.664Z,98148.47
2018-09-12T22:24:23.889Z,98152.16
2018-09-12T22:26:52.073Z,98152.36
2018-09-12T22:29:20.350Z,98155.70
2018-09-12T22:31:48.532Z,98162.20
2018-09-12T22:34:17.012Z,98155.13
2018-09-12T22:36:45.382Z,98153.55
2018-09-12T22:39:13.649Z,98153.44
2018-09-12T22:41:41.889Z,98154.67
2018-09-12T22:44:10.071Z,98157.22
2018-09-12T22:46:38.249Z,98153.73
2018-09-12T22:49:06.565Z,98158.82
2018-09-12T22:51:34.765Z,98147.66
2018-09-12T22:54:03.038Z,98157.23
2018-09-12T22:56:31.173Z,98157.74
2018-09-12T22:58:59.471Z,98158.78
2018-09-12T23:01:27.722Z,98162.82
2018-09-12T23:03:55.985Z,98158.99
2018-09-12T23:06:24.261Z,98153.66
2018-09-12T23:08:52.443Z,98159.74
2018-09-12T23:11:20.624Z,98159.62
2018-09-12T23:13:48.996Z,98159.70
2018-09-12T23:16:17.257Z,98160.61
2018-09-12T23:18:45.455Z,98161.77
2018-09-12T23:21:13.641Z,98164.94
2018-09-12T23:23:41.884Z,98166.47
2018-09-12T23:26:10.053Z,98164.15
2018-09-12T23:28:38.240Z,98162.15
2018-09-12T23:31:06.440Z,98158.98
2018-09-12T23:33:34.612Z,98150.37
2018-09-12T23:36:02.877Z,98150.25
2018-09-12T23:38:31.142Z,98147.95
2018-09-12T23:40:59.310Z,98138.63
2018-09-12T23:43:27.798Z,98143.56
2018-09-12T23:45:56.023Z,98135.86
2018-09-12T23:48:24.178Z,98126.87
2018-09-12T23:50:52.383Z,98130.53
2018-09-12T23:53:20.598Z,98130.95
2018-09-12T23:55:48.794Z,98126.93
2018-09-12T23:58:23.395Z,98125.06
